sensor_id;sensor_type;location;lat;lon;timestamp;P1;durP1;ratioP1;P2;durP2;ratioP2
4808;SDS011;2418;49.930;8.606;2022-08-14T00:00:00;300.15;;;161.90;;
4808;SDS011;2418;49.930;8.606;2022-08-14T00:02:26;257.73;;;141.63;;
4808;SDS011;2418;49.930;8.606;2022-08-14T00:04:52;183.50;;;98.05;;
4808;SDS011;2418;49.930;8.606;2022-08-14T00:07:18;115.53;;;61.22;;
4808;SDS011;2418;49.930;8.606;2022-08-14T00:09:44;65.60;;;38.05;;
4808;SDS011;2418;49.930;8.606;2022-08-14T00:12:10;67.28;;;38.58;;
4808;SDS011;2418;49.930;8.606;2022-08-14T00:14:37;53.63;;;31.67;;
4808;SDS011;2418;49.930;8.606;2022-08-14T00:17:03;48.58;;;26.25;;
4808;SDS011;2418;49.930;8.606;2022-08-14T00:19:29;32.03;;;22.07;;
4808;SDS011;2418;49.930;8.606;2022-08-14T00:21:55;29.37;;;17.80;;
4808;SDS011;2418;49.930;8.606;2022-08-14T00:24:22;21.90;;;15.13;;
4808;SDS011;2418;49.930;8.606;2022-08-14T00:26:48;15.90;;;12.52;;
4808;SDS011;2418;49.930;8.606;2022-08-14T00:29:14;13.52;;;11.07;;
4808;SDS011;2418;49.930;8.606;2022-08-14T00:31:40;12.63;;;10.52;;
4808;SDS011;2418;49.930;8.606;2022-08-14T00:34:07;11.80;;;9.82;;
4808;SDS011;2418;49.930;8.606;2022-08-14T00:36:33;12.70;;;8.70;;
4808;SDS011;2418;49.930;8.606;2022-08-14T00:38:59;9.80;;;8.90;;
4808;SDS011;2418;49.930;8.606;2022-08-14T00:41:29;9.82;;;8.88;;
4808;SDS011;2418;49.930;8.606;2022-08-14T00:43:56;9.48;;;8.68;;
4808;SDS011;2418;49.930;8.606;2022-08-14T00:46:22;10.50;;;8.67;;
4808;SDS011;2418;49.930;8.606;2022-08-14T00:48:48;10.23;;;9.35;;
4808;SDS011;2418;49.930;8.606;2022-08-14T00:51:14;10.85;;;9.85;;
4808;SDS011;2418;49.930;8.606;2022-08-14T00:53:40;9.10;;;8.20;;
4808;SDS011;2418;49.930;8.606;2022-08-14T00:56:07;10.77;;;8.80;;
4808;SDS011;2418;49.930;8.606;2022-08-14T00:58:34;9.57;;;8.77;;
4808;SDS011;2418;49.930;8.606;2022-08-14T01:01:03;8.23;;;7.53;;
4808;SDS011;2418;49.930;8.606;2022-08-14T01:03:29;7.32;;;6.82;;
4808;SDS011;2418;49.930;8.606;2022-08-14T01:05:56;7.90;;;7.30;;
4808;SDS011;2418;49.930;8.606;2022-08-14T01:08:24;10.70;;;7.60;;
4808;SDS011;2418;49.930;8.606;2022-08-14T01:10:50;7.10;;;6.70;;
4808;SDS011;2418;49.930;8.606;2022-08-14T01:13:19;7.00;;;6.60;;
4808;SDS011;2418;49.930;8.606;2022-08-14T01:15:46;7.20;;;6.70;;
4808;SDS011;2418;49.930;8.606;2022-08-14T01:18:12;7.00;;;6.53;;
4808;SDS011;2418;49.930;8.606;2022-08-14T01:20:58;6.80;;;6.50;;
4808;SDS011;2418;49.930;8.606;2022-08-14T01:23:36;8.05;;;7.55;;
4808;SDS011;2418;49.930;8.606;2022-08-14T01:26:03;7.38;;;6.88;;
4808;SDS011;2418;49.930;8.606;2022-08-14T01:28:30;7.85;;;7.28;;
4808;SDS011;2418;49.930;8.606;2022-08-14T01:30:58;8.00;;;7.50;;
4808;SDS011;2418;49.930;8.606;2022-08-14T01:33:25;7.80;;;7.20;;
4808;SDS011;2418;49.930;8.606;2022-08-14T01:35:56;7.95;;;7.45;;
4808;SDS011;2418;49.930;8.606;2022-08-14T01:38:25;8.70;;;7.80;;
4808;SDS011;2418;49.930;8.606;2022-08-14T01:40:59;8.02;;;7.47;;
4808;SDS011;2418;49.930;8.606;2022-08-14T01:43:25;7.95;;;7.53;;
4808;SDS011;2418;49.930;8.606;2022-08-14T01:45:55;8.33;;;7.60;;
4808;SDS011;2418;49.930;8.606;2022-08-14T01:48:22;9.48;;;8.20;;
4808;SDS011;2418;49.930;8.606;2022-08-14T01:50:49;8.60;;;7.80;;
4808;SDS011;2418;49.930;8.606;2022-08-14T01:53:15;9.27;;;8.60;;
4808;SDS011;2418;49.930;8.606;2022-08-14T01:55:41;9.82;;;9.23;;
4808;SDS011;2418;49.930;8.606;2022-08-14T01:58:07;9.25;;;8.55;;
4808;SDS011;2418;49.930;8.606;2022-08-14T02:00:40;9.02;;;8.43;;
4808;SDS011;2418;49.930;8.606;2022-08-14T02:03:06;9.20;;;8.40;;
4808;SDS011;2418;49.930;8.606;2022-08-14T02:05:33;9.40;;;8.80;;
4808;SDS011;2418;49.930;8.606;2022-08-14T02:07:59;9.90;;;8.90;;
4808;SDS011;2418;49.930;8.606;2022-08-14T02:10:25;9.38;;;8.68;;
4808;SDS011;2418;49.930;8.606;2022-08-14T02:12:55;10.20;;;9.40;;
4808;SDS011;2418;49.930;8.606;2022-08-14T02:15:21;9.90;;;9.00;;
4808;SDS011;2418;49.930;8.606;2022-08-14T02:17:48;9.77;;;9.10;;
4808;SDS011;2418;49.930;8.606;2022-08-14T02:20:14;10.65;;;9.65;;
4808;SDS011;2418;49.930;8.606;2022-08-14T02:22:42;9.75;;;8.95;;
4808;SDS011;2418;49.930;8.606;2022-08-14T02:25:09;10.05;;;9.20;;
4808;SDS011;2418;49.930;8.606;2022-08-14T02:27:35;13.05;;;9.60;;
4808;SDS011;2418;49.930;8.606;2022-08-14T02:30:01;10.70;;;9.80;;
4808;SDS011;2418;49.930;8.606;2022-08-14T02:32:28;11.23;;;10.23;;
4808;SDS011;2418;49.930;8.606;2022-08-14T02:34:55;9.88;;;9.10;;
4808;SDS011;2418;49.930;8.606;2022-08-14T02:37:21;10.50;;;9.40;;
4808;SDS011;2418;49.930;8.606;2022-08-14T02:39:47;11.40;;;10.20;;
4808;SDS011;2418;49.930;8.606;2022-08-14T02:42:16;10.40;;;9.43;;
4808;SDS011;2418;49.930;8.606;2022-08-14T02:44:42;12.73;;;9.65;;
4808;SDS011;2418;49.930;8.606;2022-08-14T02:47:09;10.50;;;9.77;;
4808;SDS011;2418;49.930;8.606;2022-08-14T02:49:35;10.32;;;9.52;;
4808;SDS011;2418;49.930;8.606;2022-08-14T02:52:02;10.73;;;9.82;;
4808;SDS011;2418;49.930;8.606;2022-08-14T02:54:31;11.50;;;10.10;;
4808;SDS011;2418;49.930;8.606;2022-08-14T02:56:58;12.15;;;10.45;;
4808;SDS011;2418;49.930;8.606;2022-08-14T02:59:25;10.75;;;9.95;;
4808;SDS011;2418;49.930;8.606;2022-08-14T03:01:55;11.07;;;10.17;;
4808;SDS011;2418;49.930;8.606;2022-08-14T03:04:22;10.75;;;9.85;;
4808;SDS011;2418;49.930;8.606;2022-08-14T03:06:48;11.48;;;10.48;;
4808;SDS011;2418;49.930;8.606;2022-08-14T03:09:14;11.70;;;10.80;;
4808;SDS011;2418;49.930;8.606;2022-08-14T03:11:40;11.88;;;10.75;;
4808;SDS011;2418;49.930;8.606;2022-08-14T03:14:08;10.98;;;10.07;;
4808;SDS011;2418;49.930;8.606;2022-08-14T03:16:35;11.98;;;10.98;;
4808;SDS011;2418;49.930;8.606;2022-08-14T03:19:02;12.07;;;11.00;;
4808;SDS011;2418;49.930;8.606;2022-08-14T03:21:31;11.55;;;10.60;;
4808;SDS011;2418;49.930;8.606;2022-08-14T03:23:57;12.57;;;11.30;;
4808;SDS011;2418;49.930;8.606;2022-08-14T03:26:44;12.13;;;11.02;;
4808;SDS011;2418;49.930;8.606;2022-08-14T03:29:12;12.45;;;11.15;;
4808;SDS011;2418;49.930;8.606;2022-08-14T03:31:39;11.90;;;10.90;;
4808;SDS011;2418;49.930;8.606;2022-08-14T03:34:06;13.10;;;11.90;;
4808;SDS011;2418;49.930;8.606;2022-08-14T03:36:36;12.23;;;11.20;;
4808;SDS011;2418;49.930;8.606;2022-08-14T03:39:04;14.10;;;11.20;;
4808;SDS011;2418;49.930;8.606;2022-08-14T03:41:30;11.00;;;10.20;;
4808;SDS011;2418;49.930;8.606;2022-08-14T03:43:57;11.77;;;10.77;;
4808;SDS011;2418;49.930;8.606;2022-08-14T03:46:24;11.68;;;10.88;;
4808;SDS011;2418;49.930;8.606;2022-08-14T03:48:51;11.70;;;10.82;;
4808;SDS011;2418;49.930;8.606;2022-08-14T03:51:18;12.00;;;10.77;;
4808;SDS011;2418;49.930;8.606;2022-08-14T03:53:45;11.77;;;10.75;;
4808;SDS011;2418;49.930;8.606;2022-08-14T03:56:12;13.00;;;11.32;;
4808;SDS011;2418;49.930;8.606;2022-08-14T03:58:43;11.43;;;10.52;;
4808;SDS011;2418;49.930;8.606;2022-08-14T04:01:10;12.10;;;10.77;;
4808;SDS011;2418;49.930;8.606;2022-08-14T04:03:36;11.30;;;10.40;;
4808;SDS011;2418;49.930;8.606;2022-08-14T04:06:02;20.45;;;11.18;;
4808;SDS011;2418;49.930;8.606;2022-08-14T04:08:28;11.85;;;10.82;;
4808;SDS011;2418;49.930;8.606;2022-08-14T04:10:54;11.93;;;10.73;;
4808;SDS011;2418;49.930;8.606;2022-08-14T04:13:21;12.10;;;11.00;;
4808;SDS011;2418;49.930;8.606;2022-08-14T04:15:47;11.95;;;10.88;;
4808;SDS011;2418;49.930;8.606;2022-08-14T04:18:13;12.70;;;11.60;;
4808;SDS011;2418;49.930;8.606;2022-08-14T04:20:39;11.48;;;10.65;;
4808;SDS011;2418;49.930;8.606;2022-08-14T04:23:07;12.47;;;11.27;;
4808;SDS011;2418;49.930;8.606;2022-08-14T04:25:33;12.40;;;11.30;;
4808;SDS011;2418;49.930;8.606;2022-08-14T04:28:00;11.55;;;10.68;;
4808;SDS011;2418;49.930;8.606;2022-08-14T04:30:27;11.73;;;10.82;;
4808;SDS011;2418;49.930;8.606;2022-08-14T04:32:54;11.88;;;10.85;;
4808;SDS011;2418;49.930;8.606;2022-08-14T04:35:20;12.05;;;10.95;;
4808;SDS011;2418;49.930;8.606;2022-08-14T04:37:46;11.95;;;10.95;;
4808;SDS011;2418;49.930;8.606;2022-08-14T04:40:31;10.88;;;10.07;;
4808;SDS011;2418;49.930;8.606;2022-08-14T04:43:15;11.95;;;10.95;;
4808;SDS011;2418;49.930;8.606;2022-08-14T04:46:03;11.00;;;10.00;;
4808;SDS011;2418;49.930;8.606;2022-08-14T04:48:29;10.63;;;9.90;;
4808;SDS011;2418;49.930;8.606;2022-08-14T04:50:55;11.15;;;10.15;;
4808;SDS011;2418;49.930;8.606;2022-08-14T04:53:23;10.55;;;9.85;;
4808;SDS011;2418;49.930;8.606;2022-08-14T04:55:49;10.40;;;9.60;;
4808;SDS011;2418;49.930;8.606;2022-08-14T04:58:18;11.85;;;10.73;;
4808;SDS011;2418;49.930;8.606;2022-08-14T05:00:45;11.70;;;10.60;;
4808;SDS011;2418;49.930;8.606;2022-08-14T05:03:14;12.40;;;11.30;;
4808;SDS011;2418;49.930;8.606;2022-08-14T05:05:40;13.57;;;11.45;;
4808;SDS011;2418;49.930;8.606;2022-08-14T05:08:08;12.55;;;11.45;;
4808;SDS011;2418;49.930;8.606;2022-08-14T05:10:36;12.23;;;11.13;;
4808;SDS011;2418;49.930;8.606;2022-08-14T05:13:02;11.95;;;10.95;;
4808;SDS011;2418;49.930;8.606;2022-08-14T05:15:30;14.00;;;12.10;;
4808;SDS011;2418;49.930;8.606;2022-08-14T05:17:56;13.10;;;12.00;;
4808;SDS011;2418;49.930;8.606;2022-08-14T05:20:23;11.82;;;10.93;;
4808;SDS011;2418;49.930;8.606;2022-08-14T05:22:49;12.10;;;11.00;;
4808;SDS011;2418;49.930;8.606;2022-08-14T05:25:15;12.40;;;11.40;;
4808;SDS011;2418;49.930;8.606;2022-08-14T05:27:41;13.20;;;11.95;;
4808;SDS011;2418;49.930;8.606;2022-08-14T05:30:09;12.73;;;11.60;;
4808;SDS011;2418;49.930;8.606;2022-08-14T05:32:35;14.02;;;11.10;;
4808;SDS011;2418;49.930;8.606;2022-08-14T05:35:02;11.20;;;10.40;;
4808;SDS011;2418;49.930;8.606;2022-08-14T05:37:29;10.90;;;10.20;;
4808;SDS011;2418;49.930;8.606;2022-08-14T05:39:55;11.00;;;9.97;;
4808;SDS011;2418;49.930;8.606;2022-08-14T05:42:22;11.87;;;10.97;;
4808;SDS011;2418;49.930;8.606;2022-08-14T05:44:47;11.50;;;10.50;;
4808;SDS011;2418;49.930;8.606;2022-08-14T05:47:14;11.82;;;10.63;;
4808;SDS011;2418;49.930;8.606;2022-08-14T05:49:39;12.10;;;11.10;;
4808;SDS011;2418;49.930;8.606;2022-08-14T05:52:05;12.68;;;11.57;;
4808;SDS011;2418;49.930;8.606;2022-08-14T05:54:31;13.32;;;12.23;;
4808;SDS011;2418;49.930;8.606;2022-08-14T05:56:57;11.60;;;10.80;;
4808;SDS011;2418;49.930;8.606;2022-08-14T05:59:23;11.77;;;10.88;;
4808;SDS011;2418;49.930;8.606;2022-08-14T06:01:49;14.00;;;12.70;;
4808;SDS011;2418;49.930;8.606;2022-08-14T06:04:15;12.75;;;11.75;;
4808;SDS011;2418;49.930;8.606;2022-08-14T06:06:41;12.27;;;11.18;;
4808;SDS011;2418;49.930;8.606;2022-08-14T06:09:07;13.45;;;12.15;;
4808;SDS011;2418;49.930;8.606;2022-08-14T06:11:34;16.67;;;12.75;;
4808;SDS011;2418;49.930;8.606;2022-08-14T06:14:00;12.30;;;11.20;;
4808;SDS011;2418;49.930;8.606;2022-08-14T06:16:26;11.55;;;10.57;;
4808;SDS011;2418;49.930;8.606;2022-08-14T06:18:52;12.55;;;11.63;;
4808;SDS011;2418;49.930;8.606;2022-08-14T06:21:18;11.75;;;10.75;;
4808;SDS011;2418;49.930;8.606;2022-08-14T06:23:44;11.80;;;10.80;;
4808;SDS011;2418;49.930;8.606;2022-08-14T06:26:10;13.60;;;12.40;;
4808;SDS011;2418;49.930;8.606;2022-08-14T06:28:36;12.70;;;11.50;;
4808;SDS011;2418;49.930;8.606;2022-08-14T06:31:02;13.43;;;12.13;;
4808;SDS011;2418;49.930;8.606;2022-08-14T06:33:28;13.20;;;11.60;;
4808;SDS011;2418;49.930;8.606;2022-08-14T06:35:54;16.50;;;13.70;;
4808;SDS011;2418;49.930;8.606;2022-08-14T06:38:21;13.57;;;12.30;;
4808;SDS011;2418;49.930;8.606;2022-08-14T06:40:48;13.10;;;12.00;;
4808;SDS011;2418;49.930;8.606;2022-08-14T06:43:17;13.20;;;11.93;;
4808;SDS011;2418;49.930;8.606;2022-08-14T06:45:45;13.88;;;11.98;;
4808;SDS011;2418;49.930;8.606;2022-08-14T06:48:15;12.70;;;11.10;;
4808;SDS011;2418;49.930;8.606;2022-08-14T06:50:41;18.57;;;15.10;;
4808;SDS011;2418;49.930;8.606;2022-08-14T06:53:08;17.60;;;15.83;;
4808;SDS011;2418;49.930;8.606;2022-08-14T06:55:34;22.67;;;16.90;;
4808;SDS011;2418;49.930;8.606;2022-08-14T06:58:00;29.35;;;19.52;;
4808;SDS011;2418;49.930;8.606;2022-08-14T07:00:26;35.58;;;21.08;;
4808;SDS011;2418;49.930;8.606;2022-08-14T07:02:52;29.67;;;21.13;;
4808;SDS011;2418;49.930;8.606;2022-08-14T07:05:38;31.20;;;21.90;;
4808;SDS011;2418;49.930;8.606;2022-08-14T07:08:11;36.88;;;22.00;;
4808;SDS011;2418;49.930;8.606;2022-08-14T07:10:38;35.37;;;24.03;;
4808;SDS011;2418;49.930;8.606;2022-08-14T07:13:04;58.83;;;31.58;;
4808;SDS011;2418;49.930;8.606;2022-08-14T07:15:33;53.95;;;31.25;;
4808;SDS011;2418;49.930;8.606;2022-08-14T07:18:00;42.40;;;29.35;;
4808;SDS011;2418;49.930;8.606;2022-08-14T07:20:26;41.90;;;26.70;;
4808;SDS011;2418;49.930;8.606;2022-08-14T07:22:52;54.72;;;33.13;;
4808;SDS011;2418;49.930;8.606;2022-08-14T07:25:22;63.15;;;35.47;;
4808;SDS011;2418;49.930;8.606;2022-08-14T07:27:49;59.03;;;32.92;;
4808;SDS011;2418;49.930;8.606;2022-08-14T07:30:15;60.00;;;32.85;;
4808;SDS011;2418;49.930;8.606;2022-08-14T07:32:41;50.75;;;32.00;;
4808;SDS011;2418;49.930;8.606;2022-08-14T07:35:07;55.53;;;29.70;;
4808;SDS011;2418;49.930;8.606;2022-08-14T07:37:33;45.78;;;28.83;;
4808;SDS011;2418;49.930;8.606;2022-08-14T07:40:00;46.42;;;29.90;;
4808;SDS011;2418;49.930;8.606;2022-08-14T07:42:26;39.78;;;25.25;;
4808;SDS011;2418;49.930;8.606;2022-08-14T07:44:53;36.85;;;24.83;;
4808;SDS011;2418;49.930;8.606;2022-08-14T07:47:19;38.03;;;26.30;;
4808;SDS011;2418;49.930;8.606;2022-08-14T07:50:02;34.70;;;23.55;;
4808;SDS011;2418;49.930;8.606;2022-08-14T07:52:29;43.17;;;29.17;;
4808;SDS011;2418;49.930;8.606;2022-08-14T07:54:55;48.17;;;30.17;;
4808;SDS011;2418;49.930;8.606;2022-08-14T07:57:21;42.13;;;28.13;;
4808;SDS011;2418;49.930;8.606;2022-08-14T07:59:47;58.92;;;33.15;;
4808;SDS011;2418;49.930;8.606;2022-08-14T08:02:14;60.85;;;35.92;;
4808;SDS011;2418;49.930;8.606;2022-08-14T08:04:44;62.72;;;34.10;;
4808;SDS011;2418;49.930;8.606;2022-08-14T08:07:11;45.80;;;30.83;;
4808;SDS011;2418;49.930;8.606;2022-08-14T08:09:37;47.63;;;30.25;;
4808;SDS011;2418;49.930;8.606;2022-08-14T08:12:07;46.90;;;28.70;;
4808;SDS011;2418;49.930;8.606;2022-08-14T08:14:34;43.47;;;30.20;;
4808;SDS011;2418;49.930;8.606;2022-08-14T08:17:01;43.95;;;29.25;;
4808;SDS011;2418;49.930;8.606;2022-08-14T08:19:28;38.75;;;26.95;;
4808;SDS011;2418;49.930;8.606;2022-08-14T08:21:56;41.90;;;25.50;;
4808;SDS011;2418;49.930;8.606;2022-08-14T08:24:22;31.55;;;23.63;;
4808;SDS011;2418;49.930;8.606;2022-08-14T08:26:48;37.53;;;24.35;;
4808;SDS011;2418;49.930;8.606;2022-08-14T08:29:18;33.50;;;23.67;;
4808;SDS011;2418;49.930;8.606;2022-08-14T08:31:45;32.33;;;23.50;;
4808;SDS011;2418;49.930;8.606;2022-08-14T08:34:12;38.50;;;26.67;;
4808;SDS011;2418;49.930;8.606;2022-08-14T08:36:39;37.40;;;27.10;;
4808;SDS011;2418;49.930;8.606;2022-08-14T08:39:06;42.17;;;26.52;;
4808;SDS011;2418;49.930;8.606;2022-08-14T08:41:39;36.38;;;25.50;;
4808;SDS011;2418;49.930;8.606;2022-08-14T08:44:05;39.75;;;24.45;;
4808;SDS011;2418;49.930;8.606;2022-08-14T08:46:31;33.78;;;24.10;;
4808;SDS011;2418;49.930;8.606;2022-08-14T08:48:57;29.58;;;20.75;;
4808;SDS011;2418;49.930;8.606;2022-08-14T08:51:29;34.78;;;24.25;;
4808;SDS011;2418;49.930;8.606;2022-08-14T08:58:59;30.65;;;21.88;;
4808;SDS011;2418;49.930;8.606;2022-08-14T09:01:29;31.38;;;21.20;;
4808;SDS011;2418;49.930;8.606;2022-08-14T09:04:04;26.83;;;19.05;;
4808;SDS011;2418;49.930;8.606;2022-08-14T09:06:30;27.75;;;20.42;;
4808;SDS011;2418;49.930;8.606;2022-08-14T09:08:58;26.83;;;19.52;;
4808;SDS011;2418;49.930;8.606;2022-08-14T09:11:24;27.90;;;19.08;;
4808;SDS011;2418;49.930;8.606;2022-08-14T09:13:50;30.42;;;21.23;;
4808;SDS011;2418;49.930;8.606;2022-08-14T09:16:22;27.38;;;19.50;;
4808;SDS011;2418;49.930;8.606;2022-08-14T09:18:49;30.45;;;18.58;;
4808;SDS011;2418;49.930;8.606;2022-08-14T09:21:15;26.65;;;17.70;;
4808;SDS011;2418;49.930;8.606;2022-08-14T09:23:42;32.42;;;19.10;;
4808;SDS011;2418;49.930;8.606;2022-08-14T09:26:08;33.72;;;19.50;;
4808;SDS011;2418;49.930;8.606;2022-08-14T09:28:34;32.80;;;19.20;;
4808;SDS011;2418;49.930;8.606;2022-08-14T09:31:00;27.67;;;18.98;;
4808;SDS011;2418;49.930;8.606;2022-08-14T09:33:41;30.35;;;18.55;;
4808;SDS011;2418;49.930;8.606;2022-08-14T09:47:16;24.08;;;16.33;;
4808;SDS011;2418;49.930;8.606;2022-08-14T09:49:42;22.92;;;17.63;;
4808;SDS011;2418;49.930;8.606;2022-08-14T09:52:10;25.38;;;18.00;;
4808;SDS011;2418;49.930;8.606;2022-08-14T09:54:44;27.93;;;18.10;;
4808;SDS011;2418;49.930;8.606;2022-08-14T09:57:11;24.23;;;17.42;;
4808;SDS011;2418;49.930;8.606;2022-08-14T09:59:49;22.88;;;16.85;;
4808;SDS011;2418;49.930;8.606;2022-08-14T10:02:20;25.70;;;17.17;;
4808;SDS011;2418;49.930;8.606;2022-08-14T10:04:57;8.07;;;7.57;;
4808;SDS011;2418;49.930;8.606;2022-08-14T10:07:44;7.70;;;7.40;;
4808;SDS011;2418;49.930;8.606;2022-08-14T10:10:25;10.38;;;8.93;;
4808;SDS011;2418;49.930;8.606;2022-08-14T10:12:52;10.35;;;9.25;;
4808;SDS011;2418;49.930;8.606;2022-08-14T10:15:19;11.60;;;10.45;;
4808;SDS011;2418;49.930;8.606;2022-08-14T10:17:46;19.53;;;13.57;;
4808;SDS011;2418;49.930;8.606;2022-08-14T10:20:17;7.05;;;6.35;;
4808;SDS011;2418;49.930;8.606;2022-08-14T10:22:46;8.27;;;7.60;;
4808;SDS011;2418;49.930;8.606;2022-08-14T10:25:14;7.57;;;6.97;;
4808;SDS011;2418;49.930;8.606;2022-08-14T10:27:41;7.83;;;6.97;;
4808;SDS011;2418;49.930;8.606;2022-08-14T10:30:15;7.40;;;6.80;;
4808;SDS011;2418;49.930;8.606;2022-08-14T10:32:42;7.03;;;6.63;;
4808;SDS011;2418;49.930;8.606;2022-08-14T10:35:09;4.93;;;4.63;;
4808;SDS011;2418;49.930;8.606;2022-08-14T10:37:39;4.18;;;3.97;;
4808;SDS011;2418;49.930;8.606;2022-08-14T10:40:05;5.10;;;4.90;;
4808;SDS011;2418;49.930;8.606;2022-08-14T10:42:36;4.68;;;4.50;;
4808;SDS011;2418;49.930;8.606;2022-08-14T10:45:02;5.55;;;5.03;;
4808;SDS011;2418;49.930;8.606;2022-08-14T10:47:35;6.13;;;5.82;;
4808;SDS011;2418;49.930;8.606;2022-08-14T10:50:02;6.10;;;5.70;;
4808;SDS011;2418;49.930;8.606;2022-08-14T10:52:29;5.85;;;5.40;;
4808;SDS011;2418;49.930;8.606;2022-08-14T11:00:14;4.50;;;4.30;;
4808;SDS011;2418;49.930;8.606;2022-08-14T11:02:41;4.10;;;3.70;;
4808;SDS011;2418;49.930;8.606;2022-08-14T11:07:38;5.30;;;3.20;;
4808;SDS011;2418;49.930;8.606;2022-08-14T11:10:11;3.25;;;3.15;;
4808;SDS011;2418;49.930;8.606;2022-08-14T11:12:42;3.70;;;3.40;;
4808;SDS011;2418;49.930;8.606;2022-08-14T11:15:10;4.03;;;3.83;;
4808;SDS011;2418;49.930;8.606;2022-08-14T11:17:36;4.43;;;4.13;;
4808;SDS011;2418;49.930;8.606;2022-08-14T11:20:04;5.00;;;4.90;;
4808;SDS011;2418;49.930;8.606;2022-08-14T11:22:30;4.47;;;4.10;;
4808;SDS011;2418;49.930;8.606;2022-08-14T11:25:01;3.90;;;3.80;;
4808;SDS011;2418;49.930;8.606;2022-08-14T11:27:30;3.33;;;3.33;;
4808;SDS011;2418;49.930;8.606;2022-08-14T11:29:58;3.85;;;3.75;;
4808;SDS011;2418;49.930;8.606;2022-08-14T11:32:25;4.10;;;4.00;;
4808;SDS011;2418;49.930;8.606;2022-08-14T11:34:51;3.60;;;3.50;;
4808;SDS011;2418;49.930;8.606;2022-08-14T11:37:17;3.85;;;3.55;;
4808;SDS011;2418;49.930;8.606;2022-08-14T11:39:44;4.38;;;4.07;;
4808;SDS011;2418;49.930;8.606;2022-08-14T11:42:18;4.50;;;3.88;;
4808;SDS011;2418;49.930;8.606;2022-08-14T11:44:45;4.60;;;4.50;;
4808;SDS011;2418;49.930;8.606;2022-08-14T11:47:11;4.25;;;4.15;;
4808;SDS011;2418;49.930;8.606;2022-08-14T11:49:43;4.50;;;4.20;;
4808;SDS011;2418;49.930;8.606;2022-08-14T11:52:09;5.60;;;5.20;;
4808;SDS011;2418;49.930;8.606;2022-08-14T11:54:36;4.00;;;3.90;;
4808;SDS011;2418;49.930;8.606;2022-08-14T11:57:02;3.65;;;3.55;;
4808;SDS011;2418;49.930;8.606;2022-08-14T11:59:29;3.70;;;3.60;;
4808;SDS011;2418;49.930;8.606;2022-08-14T12:02:07;3.80;;;3.63;;
4808;SDS011;2418;49.930;8.606;2022-08-14T12:04:33;3.60;;;3.50;;
4808;SDS011;2418;49.930;8.606;2022-08-14T12:06:59;4.10;;;3.88;;
4808;SDS011;2418;49.930;8.606;2022-08-14T12:09:29;3.92;;;3.53;;
4808;SDS011;2418;49.930;8.606;2022-08-14T12:11:55;4.30;;;3.60;;
4808;SDS011;2418;49.930;8.606;2022-08-14T12:14:21;3.40;;;3.30;;
4808;SDS011;2418;49.930;8.606;2022-08-14T12:17:00;3.80;;;3.50;;
4808;SDS011;2418;49.930;8.606;2022-08-14T12:19:28;3.70;;;3.60;;
4808;SDS011;2418;49.930;8.606;2022-08-14T12:21:54;4.50;;;4.40;;
4808;SDS011;2418;49.930;8.606;2022-08-14T12:24:26;4.00;;;3.90;;
4808;SDS011;2418;49.930;8.606;2022-08-14T12:26:53;7.25;;;6.97;;
4808;SDS011;2418;49.930;8.606;2022-08-14T12:29:19;8.30;;;7.65;;
4808;SDS011;2418;49.930;8.606;2022-08-14T12:31:45;6.30;;;6.00;;
4808;SDS011;2418;49.930;8.606;2022-08-14T12:34:22;4.15;;;4.00;;
4808;SDS011;2418;49.930;8.606;2022-08-14T12:37:04;3.80;;;3.42;;
4808;SDS011;2418;49.930;8.606;2022-08-14T12:39:31;3.17;;;2.95;;
4808;SDS011;2418;49.930;8.606;2022-08-14T12:41:58;3.70;;;3.60;;
4808;SDS011;2418;49.930;8.606;2022-08-14T12:44:38;4.90;;;3.90;;
4808;SDS011;2418;49.930;8.606;2022-08-14T12:47:08;3.60;;;3.50;;
4808;SDS011;2418;49.930;8.606;2022-08-14T12:49:36;3.50;;;3.40;;
4808;SDS011;2418;49.930;8.606;2022-08-14T12:52:03;2.90;;;2.80;;
4808;SDS011;2418;49.930;8.606;2022-08-14T12:54:30;3.50;;;3.20;;
4808;SDS011;2418;49.930;8.606;2022-08-14T12:57:07;3.40;;;3.40;;
4808;SDS011;2418;49.930;8.606;2022-08-14T12:59:33;3.20;;;3.20;;
4808;SDS011;2418;49.930;8.606;2022-08-14T13:02:00;3.28;;;3.17;;
4808;SDS011;2418;49.930;8.606;2022-08-14T13:04:26;3.20;;;3.20;;
4808;SDS011;2418;49.930;8.606;2022-08-14T13:07:02;3.70;;;3.50;;
4808;SDS011;2418;49.930;8.606;2022-08-14T13:09:31;3.65;;;3.55;;
4808;SDS011;2418;49.930;8.606;2022-08-14T13:11:57;3.92;;;3.83;;
4808;SDS011;2418;49.930;8.606;2022-08-14T13:14:26;3.80;;;3.50;;
4808;SDS011;2418;49.930;8.606;2022-08-14T13:16:55;3.30;;;3.10;;
4808;SDS011;2418;49.930;8.606;2022-08-14T13:19:22;3.75;;;3.55;;
4808;SDS011;2418;49.930;8.606;2022-08-14T13:21:49;3.90;;;3.80;;
4808;SDS011;2418;49.930;8.606;2022-08-14T13:24:17;3.90;;;3.80;;
4808;SDS011;2418;49.930;8.606;2022-08-14T13:26:44;4.30;;;4.00;;
4808;SDS011;2418;49.930;8.606;2022-08-14T13:29:11;4.13;;;4.03;;
4808;SDS011;2418;49.930;8.606;2022-08-14T13:31:38;4.50;;;4.20;;
4808;SDS011;2418;49.930;8.606;2022-08-14T13:34:10;4.40;;;4.30;;
4808;SDS011;2418;49.930;8.606;2022-08-14T13:36:37;3.88;;;3.78;;
4808;SDS011;2418;49.930;8.606;2022-08-14T13:39:04;4.90;;;3.55;;
4808;SDS011;2418;49.930;8.606;2022-08-14T13:41:30;3.90;;;3.70;;
4808;SDS011;2418;49.930;8.606;2022-08-14T13:43:57;2.85;;;2.85;;
4808;SDS011;2418;49.930;8.606;2022-08-14T13:46:23;3.50;;;3.40;;
4808;SDS011;2418;49.930;8.606;2022-08-14T13:48:50;3.72;;;3.60;;
4808;SDS011;2418;49.930;8.606;2022-08-14T13:51:16;3.45;;;3.35;;
4808;SDS011;2418;49.930;8.606;2022-08-14T13:53:45;3.22;;;3.22;;
4808;SDS011;2418;49.930;8.606;2022-08-14T13:56:12;3.90;;;3.20;;
4808;SDS011;2418;49.930;8.606;2022-08-14T13:58:40;5.45;;;3.13;;
4808;SDS011;2418;49.930;8.606;2022-08-14T14:01:08;3.60;;;3.40;;
4808;SDS011;2418;49.930;8.606;2022-08-14T14:03:35;3.28;;;3.20;;
4808;SDS011;2418;49.930;8.606;2022-08-14T14:06:02;3.70;;;3.50;;
4808;SDS011;2418;49.930;8.606;2022-08-14T14:08:28;3.65;;;3.55;;
4808;SDS011;2418;49.930;8.606;2022-08-14T14:11:01;3.60;;;3.30;;
4808;SDS011;2418;49.930;8.606;2022-08-14T14:13:27;3.17;;;3.17;;
4808;SDS011;2418;49.930;8.606;2022-08-14T14:15:53;3.60;;;3.50;;
4808;SDS011;2418;49.930;8.606;2022-08-14T14:18:20;3.70;;;3.60;;
4808;SDS011;2418;49.930;8.606;2022-08-14T14:20:49;3.60;;;3.50;;
4808;SDS011;2418;49.930;8.606;2022-08-14T14:23:17;3.80;;;3.70;;
4808;SDS011;2418;49.930;8.606;2022-08-14T14:25:43;3.63;;;3.42;;
4808;SDS011;2418;49.930;8.606;2022-08-14T14:28:12;3.73;;;3.60;;
4808;SDS011;2418;49.930;8.606;2022-08-14T14:30:39;3.30;;;3.20;;
4808;SDS011;2418;49.930;8.606;2022-08-14T14:33:06;3.67;;;3.58;;
4808;SDS011;2418;49.930;8.606;2022-08-14T14:35:33;4.00;;;3.70;;
4808;SDS011;2418;49.930;8.606;2022-08-14T14:38:01;4.10;;;3.90;;
4808;SDS011;2418;49.930;8.606;2022-08-14T14:40:29;3.70;;;3.60;;
4808;SDS011;2418;49.930;8.606;2022-08-14T14:42:57;4.30;;;4.10;;
4808;SDS011;2418;49.930;8.606;2022-08-14T14:45:23;4.07;;;3.97;;
4808;SDS011;2418;49.930;8.606;2022-08-14T14:47:51;3.50;;;3.40;;
4808;SDS011;2418;49.930;8.606;2022-08-14T14:50:18;4.05;;;4.00;;
4808;SDS011;2418;49.930;8.606;2022-08-14T14:52:45;3.75;;;3.65;;
4808;SDS011;2418;49.930;8.606;2022-08-14T14:55:11;4.35;;;4.05;;
4808;SDS011;2418;49.930;8.606;2022-08-14T14:57:38;4.40;;;4.10;;
4808;SDS011;2418;49.930;8.606;2022-08-14T15:00:09;4.30;;;4.20;;
4808;SDS011;2418;49.930;8.606;2022-08-14T15:02:40;4.13;;;3.92;;
4808;SDS011;2418;49.930;8.606;2022-08-14T15:05:06;4.07;;;3.78;;
4808;SDS011;2418;49.930;8.606;2022-08-14T15:07:33;3.90;;;3.80;;
4808;SDS011;2418;49.930;8.606;2022-08-14T15:09:59;4.30;;;4.00;;
4808;SDS011;2418;49.930;8.606;2022-08-14T15:12:25;4.30;;;4.10;;
4808;SDS011;2418;49.930;8.606;2022-08-14T15:14:52;4.20;;;4.10;;
4808;SDS011;2418;49.930;8.606;2022-08-14T15:17:19;5.18;;;5.07;;
4808;SDS011;2418;49.930;8.606;2022-08-14T15:19:46;4.25;;;3.95;;
4808;SDS011;2418;49.930;8.606;2022-08-14T15:22:12;4.20;;;3.90;;
4808;SDS011;2418;49.930;8.606;2022-08-14T15:24:38;4.07;;;3.97;;
4808;SDS011;2418;49.930;8.606;2022-08-14T15:27:04;6.45;;;6.15;;